AirNav   Everest Fuels
 
 1272 users online  

23TE Texas Regional Medical Center Heliport
Sunnyvale, Texas, USA

GOING TO SUNNYVALE?


FAA INFORMATION EFFECTIVE 25 MARCH 2021

Location

FAA Identifier: 23TE
Lat/Long: 32-46-48.0000N 096-34-05.0000W
32-46.800000N 096-34.083333W
32.7800000,-96.5680556
(estimated)
Elevation: 492 ft. / 150 m (estimated)
Time zone: UTC -5 (UTC -6 during Standard Time)
Zip code: 75182

Heliport Operations

Heliport use: Private use, MEDICAL USE.
Activation date: 08/2008
Control tower: no
ARTCC: FORT WORTH CENTER
FSS: FORT WORTH FLIGHT SERVICE STATION
Attendance: CONTINUOUS
Wind indicator: yes
Segmented circle: no
Lights: SS-SR

Heliport Communications

WX AWOS-3 at HQZ (2.7 nm SE): 118.175 (972-222-7631)
WX AWOS-3 at F46 (11 nm NE): 121.25 (972-772-6699)
WX AWOS-3 at 49T (12 nm W): 135.425 (214-670-1243)
WX AWOS-3 at LNC (14 nm SW): 118.975 (972-227-0471)
WX ASOS at DAL (15 nm W): PHONE 214-353-1551
WX ASOS at TRL (16 nm E): 119.275 (972-551-1334)
WX ASOS at RBD (16 nm W): PHONE 214-330-5317
WX AWOS-3 at ADS (18 nm NW): PHONE 972-386-4855

Nearby radio navigation aids

VOR radial/distance  VOR name  Freq  Var
CVEr105/18.2COWBOY VOR/DME116.2006E
TTTr097/24.4MAVERICK VOR/DME113.1006E
FUZr096/31.5RANGER VORTAC115.7006E
CQYr328/39.8CEDAR CREEK VORTAC114.8006E

 
NDB name  Hdg/Dist  Freq  Var  ID
MESQUITE225/2.624803EPQF .--. --.- ..-.
TRAVIS268/16.126006EAVZ .- ...- --..

Heliport Services

Runway Information

Helipad H1

Dimensions: 40 x 40 ft. / 12 x 12 m
Surface: concrete
Runway edge lights: PERI
Traffic pattern: leftleft

Heliport Ownership and Management from official FAA records

Ownership: Privately-owned
Owner: ROCKWALL HOSPITAL CORP
1100 E CAMPBELL RD SUITE 220
RICHARDSON, TX 75081
Phone 972-479-1380
Manager: TERRY J. FONTENOT
231 S COLLINS RD
SUNNYVALE, TX 75182
Phone 972-203-6240

Additional Remarks

A52-H1 35 FT BLDG 90 FT SE; 14 FT BLDG 55 FT SW; 14 FT BLDG 55 FT W; 35 FT PLINES 150 FT NE & 30 FT LIGHT POLE 200 FT S OF LNDG AREA.
OWNER DESIRES HELIPORT NOT BE CHARTED.
FOR CD CTC REGIONAL APCH AT 972-615-2799.

Instrument Procedures

There are no published instrument procedures at 23TE.

Some nearby airports with instrument procedures:

KHQZ - Mesquite Metro Airport (3 nm SE)
F46 - Ralph M Hall/Rockwall Municipal Airport (11 nm NE)
KLNC - Lancaster Regional Airport (14 nm SW)
KDAL - Dallas Love Field Airport (15 nm W)
KTRL - Terrell Municipal Airport (16 nm E)
KRBD - DallasExecutive Airport (16 nm W)
KADS - Addison Airport (18 nm NW)
 
Loc | Ops | Rwys | IFR | FBO | Links
Com | Nav | Svcs | Stats | Notes

City of Fort Worth
 
Aerial photo
No photo
 
Sectional chart

 
Airport distance calculator
Flying to Texas Regional Medical Center Heliport? Find the distance to fly.

From to 23TE

Sunrise and sunset
Times for 17-Apr-2021
 Local
(UTC-5)
 Zulu
(UTC)
Morning civil twilight06:3011:30
Sunrise06:5511:55
Sunset19:5700:57
Evening civil twilight20:2201:22

Current date and time
Zulu (UTC)  17-Apr-2021 15:03:26
Local (UTC-5)  17-Apr-2021 10:03:26
 
METAR
KHQZ 
3nm SE 
171450Z 32010G21KT 10SM SCT022 09/05 A3012
KF46 
11nm NE 
171455Z AUTO 35013G19KT 10SM BKN021 09/05 A3011 RMK AO2 T00940051
KLNC 
14nm SW 
171455Z AUTO 34012G16KT 10SM BKN023 BKN120 10/05 A3014 RMK AO2 T00950051
KDAL 
15nm W 
171453Z 33016KT 10SM SCT022 BKN160 BKN220 10/04 A3012 RMK AO2 PK WND 03029/1410 SLP198 T01000044 51015
KTRL 
16nm E 
171453Z AUTO 35015G23KT 10SM SCT021 09/05 A3011 RMK AO2 SLP195 T00940050 51015
KRBD 
16nm W 
171453Z 35009KT 10SM BKN021 09/04 A3011 RMK AO2 SLP196 T00940044 51015
KADS 
17nm NW 
171455Z 36014G18KT 10SM BKN019 10/04 A3013
TAF
KDAL 
15nm W 
171232Z 1713/1812 35017KT P6SM SCT025 BKN110 FM171500 35016KT P6SM SCT035 BKN100 FM180100 36007KT P6SM SCT090 BKN250
NOTAMs
Click for the latest NOTAMs
NOTAMs are issued by the DoD/FAA and will open in a separate window not controlled by AirNav.

 

 
 

Would you like to see your business listed on this page?

 If your business provides an interesting product or service to pilots, flight crews, aircraft, or users of the Texas Regional Medical Center Heliport, you should consider listing it here.  To start the listing process, click on the button below
 
Add a business
 

Other Pages about Texas Regional Medical Center Heliport

Update a link
 
Copyright © AirNav, LLC. All rights reserved. Privacy Policy  Contact